Weston, Missouri
Current Conditions -  °F | °C
As of 6:53 AM on Saturday 25 Oct 2014 (Local Time) from KMCI Reporting Station
Moderate Fog Moderate Fog  
Wind Chill: 58°   Ceiling: 100
Heat Index: 58°   Visibility: 0.25mi
Dew Point: 58°   Wind: 0mph
Humidity: 100%   Direction: NA
Pressure: 30.05"   Gusts: NA
Location:  39.41°N, 94.9°W
Report Text: KMCI 251153Z 00000KT 1/4SM R19R/0700V1600FT FG VV001 14/14 A3005 RMK AO2 TWR VIS 7 SLP169 T01440144 10161 20122 53014
Loading
Personal Weather Stations






























Interactive Weather Map New forecast layout! Learn more

10-Day Weather Forecast

Advertisements
Track Severe Weather on mobile